sensor_id;sensor_type;location;lat;lon;timestamp;P1;durP1;ratioP1;P2;durP2;ratioP2
10045;SDS011;5063;50.878;4.742;2022-10-04T00:01:03;9.87;;;6.73;;
10045;SDS011;5063;50.878;4.742;2022-10-04T00:06:31;9.20;;;7.43;;
10045;SDS011;5063;50.878;4.742;2022-10-04T00:08:59;12.37;;;7.70;;
10045;SDS011;5063;50.878;4.742;2022-10-04T00:11:34;8.20;;;7.40;;
10045;SDS011;5063;50.878;4.742;2022-10-04T00:14:35;11.67;;;7.60;;
10045;SDS011;5063;50.878;4.742;2022-10-04T00:16:55;12.83;;;7.97;;
10045;SDS011;5063;50.878;4.742;2022-10-04T00:19:37;10.47;;;7.73;;
10045;SDS011;5063;50.878;4.742;2022-10-04T00:24:34;12.20;;;6.87;;
10045;SDS011;5063;50.878;4.742;2022-10-04T00:27:18;13.93;;;7.00;;
10045;SDS011;5063;50.878;4.742;2022-10-04T00:30:13;10.27;;;6.97;;
10045;SDS011;5063;50.878;4.742;2022-10-04T00:35:48;10.47;;;7.10;;
10045;SDS011;5063;50.878;4.742;2022-10-04T00:38:07;8.17;;;6.30;;
10045;SDS011;5063;50.878;4.742;2022-10-04T00:40:59;9.03;;;6.97;;
10045;SDS011;5063;50.878;4.742;2022-10-04T00:46:05;8.27;;;7.07;;
10045;SDS011;5063;50.878;4.742;2022-10-04T00:51:26;10.30;;;7.17;;
10045;SDS011;5063;50.878;4.742;2022-10-04T00:54:16;7.70;;;6.27;;
10045;SDS011;5063;50.878;4.742;2022-10-04T00:57:07;7.93;;;6.47;;
10045;SDS011;5063;50.878;4.742;2022-10-04T01:02:24;9.17;;;7.17;;
10045;SDS011;5063;50.878;4.742;2022-10-04T01:05:09;8.97;;;6.33;;
10045;SDS011;5063;50.878;4.742;2022-10-04T01:07:53;9.67;;;7.30;;
10045;SDS011;5063;50.878;4.742;2022-10-04T01:10:41;10.57;;;8.27;;
10045;SDS011;5063;50.878;4.742;2022-10-04T01:13:15;17.00;;;8.30;;
10045;SDS011;5063;50.878;4.742;2022-10-04T01:15:47;12.63;;;9.00;;
10045;SDS011;5063;50.878;4.742;2022-10-04T01:20:56;9.43;;;6.93;;
10045;SDS011;5063;50.878;4.742;2022-10-04T01:23:45;11.60;;;8.37;;
10045;SDS011;5063;50.878;4.742;2022-10-04T01:28:57;13.20;;;8.40;;
10045;SDS011;5063;50.878;4.742;2022-10-04T01:31:24;13.57;;;8.13;;
10045;SDS011;5063;50.878;4.742;2022-10-04T01:33:51;12.40;;;8.23;;
10045;SDS011;5063;50.878;4.742;2022-10-04T01:36:17;13.00;;;8.07;;
10045;SDS011;5063;50.878;4.742;2022-10-04T01:38:44;10.57;;;8.00;;
10045;SDS011;5063;50.878;4.742;2022-10-04T01:41:10;11.97;;;7.57;;
10045;SDS011;5063;50.878;4.742;2022-10-04T01:43:42;12.07;;;7.93;;
10045;SDS011;5063;50.878;4.742;2022-10-04T01:46:21;10.90;;;8.40;;
10045;SDS011;5063;50.878;4.742;2022-10-04T01:48:49;9.47;;;7.57;;
10045;SDS011;5063;50.878;4.742;2022-10-04T01:56:33;11.93;;;7.57;;
10045;SDS011;5063;50.878;4.742;2022-10-04T01:59:06;12.13;;;8.10;;
10045;SDS011;5063;50.878;4.742;2022-10-04T02:01:45;14.37;;;8.50;;
10045;SDS011;5063;50.878;4.742;2022-10-04T02:04:19;13.70;;;8.13;;
10045;SDS011;5063;50.878;4.742;2022-10-04T02:06:52;11.43;;;7.83;;
10045;SDS011;5063;50.878;4.742;2022-10-04T02:09:24;12.63;;;8.00;;
10045;SDS011;5063;50.878;4.742;2022-10-04T02:11:56;13.27;;;7.57;;
10045;SDS011;5063;50.878;4.742;2022-10-04T02:14:30;16.93;;;8.70;;
10045;SDS011;5063;50.878;4.742;2022-10-04T02:16:57;10.97;;;8.33;;
10045;SDS011;5063;50.878;4.742;2022-10-04T02:19:30;11.00;;;7.80;;
10045;SDS011;5063;50.878;4.742;2022-10-04T02:22:00;15.27;;;8.33;;
10045;SDS011;5063;50.878;4.742;2022-10-04T02:24:27;12.63;;;8.40;;
10045;SDS011;5063;50.878;4.742;2022-10-04T02:26:54;15.47;;;8.40;;
10045;SDS011;5063;50.878;4.742;2022-10-04T02:29:20;12.43;;;9.10;;
10045;SDS011;5063;50.878;4.742;2022-10-04T02:31:47;12.17;;;8.43;;
10045;SDS011;5063;50.878;4.742;2022-10-04T02:34:33;10.60;;;8.00;;
10045;SDS011;5063;50.878;4.742;2022-10-04T02:37:02;10.67;;;9.03;;
10045;SDS011;5063;50.878;4.742;2022-10-04T02:39:35;13.50;;;8.10;;
10045;SDS011;5063;50.878;4.742;2022-10-04T02:42:08;14.07;;;9.00;;
10045;SDS011;5063;50.878;4.742;2022-10-04T02:44:45;12.40;;;8.73;;
10045;SDS011;5063;50.878;4.742;2022-10-04T02:47:24;11.53;;;7.63;;
10045;SDS011;5063;50.878;4.742;2022-10-04T02:49:54;13.17;;;8.97;;
10045;SDS011;5063;50.878;4.742;2022-10-04T02:52:25;13.83;;;7.90;;
10045;SDS011;5063;50.878;4.742;2022-10-04T02:55:00;12.00;;;8.60;;
10045;SDS011;5063;50.878;4.742;2022-10-04T02:57:33;14.93;;;8.63;;
10045;SDS011;5063;50.878;4.742;2022-10-04T03:00:09;12.73;;;7.80;;
10045;SDS011;5063;50.878;4.742;2022-10-04T03:02:38;9.97;;;7.90;;
10045;SDS011;5063;50.878;4.742;2022-10-04T03:05:08;9.87;;;8.10;;
10045;SDS011;5063;50.878;4.742;2022-10-04T03:07:37;11.17;;;6.97;;
10045;SDS011;5063;50.878;4.742;2022-10-04T03:10:08;9.70;;;7.97;;
10045;SDS011;5063;50.878;4.742;2022-10-04T03:12:37;12.60;;;7.30;;
10045;SDS011;5063;50.878;4.742;2022-10-04T03:15:08;11.53;;;7.83;;
10045;SDS011;5063;50.878;4.742;2022-10-04T03:17:36;13.67;;;7.13;;
10045;SDS011;5063;50.878;4.742;2022-10-04T03:20:05;12.57;;;7.17;;
10045;SDS011;5063;50.878;4.742;2022-10-04T03:22:33;15.23;;;8.57;;
10045;SDS011;5063;50.878;4.742;2022-10-04T03:24:59;10.97;;;7.50;;
10045;SDS011;5063;50.878;4.742;2022-10-04T03:27:27;10.00;;;7.30;;
10045;SDS011;5063;50.878;4.742;2022-10-04T03:29:55;11.10;;;7.83;;
10045;SDS011;5063;50.878;4.742;2022-10-04T03:32:23;12.93;;;7.90;;
10045;SDS011;5063;50.878;4.742;2022-10-04T03:35:00;10.33;;;6.73;;
10045;SDS011;5063;50.878;4.742;2022-10-04T03:37:29;11.40;;;6.87;;
10045;SDS011;5063;50.878;4.742;2022-10-04T03:39:58;12.63;;;7.87;;
10045;SDS011;5063;50.878;4.742;2022-10-04T03:42:33;9.40;;;6.73;;
10045;SDS011;5063;50.878;4.742;2022-10-04T03:45:01;13.57;;;7.17;;
10045;SDS011;5063;50.878;4.742;2022-10-04T03:47:40;11.13;;;7.33;;
10045;SDS011;5063;50.878;4.742;2022-10-04T03:50:13;14.13;;;7.23;;
10045;SDS011;5063;50.878;4.742;2022-10-04T03:52:42;9.17;;;6.37;;
10045;SDS011;5063;50.878;4.742;2022-10-04T03:55:19;12.23;;;6.87;;
10045;SDS011;5063;50.878;4.742;2022-10-04T03:57:50;9.80;;;7.30;;
10045;SDS011;5063;50.878;4.742;2022-10-04T04:00:17;8.83;;;6.60;;
10045;SDS011;5063;50.878;4.742;2022-10-04T04:02:48;10.30;;;7.57;;
10045;SDS011;5063;50.878;4.742;2022-10-04T04:05:30;10.03;;;6.13;;
10045;SDS011;5063;50.878;4.742;2022-10-04T04:10:42;9.00;;;6.20;;
10045;SDS011;5063;50.878;4.742;2022-10-04T04:15:54;11.23;;;6.83;;
10045;SDS011;5063;50.878;4.742;2022-10-04T04:18:25;11.70;;;6.50;;
10045;SDS011;5063;50.878;4.742;2022-10-04T04:20:53;11.53;;;6.67;;
10045;SDS011;5063;50.878;4.742;2022-10-04T04:26:43;10.13;;;6.40;;
10045;SDS011;5063;50.878;4.742;2022-10-04T04:29:02;9.50;;;5.93;;
10045;SDS011;5063;50.878;4.742;2022-10-04T04:32:03;9.00;;;6.60;;
10045;SDS011;5063;50.878;4.742;2022-10-04T04:38:00;11.17;;;6.77;;
10045;SDS011;5063;50.878;4.742;2022-10-04T04:40:28;8.33;;;5.83;;
10045;SDS011;5063;50.878;4.742;2022-10-04T04:45:23;9.97;;;6.27;;
10045;SDS011;5063;50.878;4.742;2022-10-04T04:47:54;12.30;;;6.73;;
10045;SDS011;5063;50.878;4.742;2022-10-04T04:50:28;9.00;;;5.90;;
10045;SDS011;5063;50.878;4.742;2022-10-04T04:55:58;8.13;;;5.63;;
10045;SDS011;5063;50.878;4.742;2022-10-04T04:58:44;9.70;;;6.43;;
10045;SDS011;5063;50.878;4.742;2022-10-04T05:01:25;9.00;;;6.53;;
10045;SDS011;5063;50.878;4.742;2022-10-04T05:06:34;9.00;;;5.30;;
10045;SDS011;5063;50.878;4.742;2022-10-04T05:09:02;9.63;;;5.73;;
10045;SDS011;5063;50.878;4.742;2022-10-04T05:11:36;10.93;;;6.30;;
10045;SDS011;5063;50.878;4.742;2022-10-04T05:14:10;11.20;;;5.63;;
10045;SDS011;5063;50.878;4.742;2022-10-04T05:16:42;8.70;;;5.80;;
10045;SDS011;5063;50.878;4.742;2022-10-04T05:19:20;8.37;;;5.60;;
10045;SDS011;5063;50.878;4.742;2022-10-04T05:21:52;9.17;;;5.07;;
10045;SDS011;5063;50.878;4.742;2022-10-04T05:24:25;10.17;;;6.57;;
10045;SDS011;5063;50.878;4.742;2022-10-04T05:26:53;12.63;;;6.30;;
10045;SDS011;5063;50.878;4.742;2022-10-04T05:29:23;6.40;;;5.47;;
10045;SDS011;5063;50.878;4.742;2022-10-04T05:34:41;11.60;;;5.93;;
10045;SDS011;5063;50.878;4.742;2022-10-04T05:37:13;8.87;;;6.57;;
10045;SDS011;5063;50.878;4.742;2022-10-04T05:42:46;8.03;;;5.83;;
10045;SDS011;5063;50.878;4.742;2022-10-04T05:45:20;8.93;;;6.60;;
10045;SDS011;5063;50.878;4.742;2022-10-04T05:47:49;9.20;;;6.47;;
10045;SDS011;5063;50.878;4.742;2022-10-04T05:56:08;11.13;;;6.33;;
10045;SDS011;5063;50.878;4.742;2022-10-04T05:59:03;9.37;;;6.90;;
10045;SDS011;5063;50.878;4.742;2022-10-04T06:04:03;10.27;;;6.73;;
10045;SDS011;5063;50.878;4.742;2022-10-04T06:06:39;10.53;;;6.10;;
10045;SDS011;5063;50.878;4.742;2022-10-04T06:22:55;7.97;;;5.70;;
10045;SDS011;5063;50.878;4.742;2022-10-04T06:25:27;7.60;;;5.57;;
10045;SDS011;5063;50.878;4.742;2022-10-04T06:28:33;7.53;;;5.60;;
10045;SDS011;5063;50.878;4.742;2022-10-04T06:31:13;12.30;;;6.07;;
10045;SDS011;5063;50.878;4.742;2022-10-04T06:36:36;10.73;;;5.60;;
10045;SDS011;5063;50.878;4.742;2022-10-04T06:42:14;7.07;;;5.53;;
10045;SDS011;5063;50.878;4.742;2022-10-04T06:45:10;10.83;;;5.97;;
10045;SDS011;5063;50.878;4.742;2022-10-04T06:50:48;12.23;;;6.17;;
10045;SDS011;5063;50.878;4.742;2022-10-04T06:54:21;9.20;;;4.77;;
10045;SDS011;5063;50.878;4.742;2022-10-04T06:59:21;6.77;;;4.77;;
10045;SDS011;5063;50.878;4.742;2022-10-04T07:02:11;10.60;;;4.73;;
10045;SDS011;5063;50.878;4.742;2022-10-04T07:04:39;18.57;;;6.27;;
10045;SDS011;5063;50.878;4.742;2022-10-04T07:15:50;5.33;;;4.30;;
10045;SDS011;5063;50.878;4.742;2022-10-04T07:18:46;6.33;;;4.83;;
10045;SDS011;5063;50.878;4.742;2022-10-04T07:21:53;8.23;;;4.80;;
10045;SDS011;5063;50.878;4.742;2022-10-04T07:24:37;6.20;;;4.83;;
10045;SDS011;5063;50.878;4.742;2022-10-04T07:27:23;6.57;;;4.27;;
10045;SDS011;5063;50.878;4.742;2022-10-04T07:30:15;7.10;;;4.50;;
10045;SDS011;5063;50.878;4.742;2022-10-04T07:32:46;8.50;;;4.27;;
10045;SDS011;5063;50.878;4.742;2022-10-04T07:43:24;8.00;;;4.30;;
10045;SDS011;5063;50.878;4.742;2022-10-04T07:46:00;7.27;;;4.70;;
10045;SDS011;5063;50.878;4.742;2022-10-04T07:48:47;4.93;;;3.90;;
10045;SDS011;5063;50.878;4.742;2022-10-04T07:51:24;6.90;;;4.13;;
10045;SDS011;5063;50.878;4.742;2022-10-04T07:54:01;7.70;;;4.30;;
10045;SDS011;5063;50.878;4.742;2022-10-04T07:56:46;7.67;;;4.50;;
10045;SDS011;5063;50.878;4.742;2022-10-04T08:07:25;11.37;;;5.40;;
10045;SDS011;5063;50.878;4.742;2022-10-04T08:10:02;7.20;;;5.10;;
10045;SDS011;5063;50.878;4.742;2022-10-04T08:18:06;6.47;;;5.03;;
10045;SDS011;5063;50.878;4.742;2022-10-04T08:20:34;7.17;;;4.77;;
10045;SDS011;5063;50.878;4.742;2022-10-04T08:29:02;8.67;;;4.60;;
10045;SDS011;5063;50.878;4.742;2022-10-04T08:32:03;9.33;;;4.27;;
10045;SDS011;5063;50.878;4.742;2022-10-04T08:37:58;3.53;;;3.23;;
10045;SDS011;5063;50.878;4.742;2022-10-04T09:08:17;7.60;;;3.57;;
10045;SDS011;5063;50.878;4.742;2022-10-04T09:33:48;12.47;;;4.60;;
10045;SDS011;5063;50.878;4.742;2022-10-04T09:41:51;9.70;;;4.57;;
10045;SDS011;5063;50.878;4.742;2022-10-04T09:58:49;6.83;;;4.00;;
10045;SDS011;5063;50.878;4.742;2022-10-04T10:10:03;6.37;;;4.23;;
10045;SDS011;5063;50.878;4.742;2022-10-04T10:13:00;10.17;;;4.47;;
10045;SDS011;5063;50.878;4.742;2022-10-04T10:16:09;9.27;;;5.03;;
10045;SDS011;5063;50.878;4.742;2022-10-04T10:19:04;8.77;;;4.57;;
10045;SDS011;5063;50.878;4.742;2022-10-04T10:35:52;5.90;;;4.47;;
10045;SDS011;5063;50.878;4.742;2022-10-04T10:43:58;6.90;;;4.23;;
10045;SDS011;5063;50.878;4.742;2022-10-04T10:49:25;7.40;;;4.07;;
10045;SDS011;5063;50.878;4.742;2022-10-04T11:06:39;6.80;;;3.10;;
10045;SDS011;5063;50.878;4.742;2022-10-04T11:12:17;5.73;;;3.33;;
10045;SDS011;5063;50.878;4.742;2022-10-04T11:37:33;8.50;;;3.70;;
10045;SDS011;5063;50.878;4.742;2022-10-04T11:51:49;6.37;;;3.77;;
10045;SDS011;5063;50.878;4.742;2022-10-04T11:57:49;8.70;;;3.50;;
10045;SDS011;5063;50.878;4.742;2022-10-04T12:00:23;6.07;;;3.37;;
10045;SDS011;5063;50.878;4.742;2022-10-04T12:27:47;5.67;;;3.33;;
10045;SDS011;5063;50.878;4.742;2022-10-04T12:30:18;6.30;;;3.20;;
10045;SDS011;5063;50.878;4.742;2022-10-04T12:38:54;5.37;;;3.03;;
10045;SDS011;5063;50.878;4.742;2022-10-04T12:50:26;5.93;;;3.23;;
10045;SDS011;5063;50.878;4.742;2022-10-04T12:53:03;5.27;;;3.20;;
10045;SDS011;5063;50.878;4.742;2022-10-04T12:55:40;5.47;;;3.57;;
10045;SDS011;5063;50.878;4.742;2022-10-04T13:01:15;5.17;;;3.10;;
10045;SDS011;5063;50.878;4.742;2022-10-04T13:19:53;5.93;;;3.27;;
10045;SDS011;5063;50.878;4.742;2022-10-04T13:35:15;6.33;;;3.20;;
10045;SDS011;5063;50.878;4.742;2022-10-04T13:37:54;5.03;;;3.10;;
10045;SDS011;5063;50.878;4.742;2022-10-04T13:43:34;4.93;;;3.13;;
10045;SDS011;5063;50.878;4.742;2022-10-04T13:46:36;6.60;;;3.40;;
10045;SDS011;5063;50.878;4.742;2022-10-04T13:55:20;4.70;;;3.50;;
10045;SDS011;5063;50.878;4.742;2022-10-04T13:58:12;7.37;;;3.33;;
10045;SDS011;5063;50.878;4.742;2022-10-04T14:03:54;4.03;;;3.37;;
10045;SDS011;5063;50.878;4.742;2022-10-04T14:12:36;6.47;;;3.77;;
10045;SDS011;5063;50.878;4.742;2022-10-04T14:23:47;7.20;;;3.50;;
10045;SDS011;5063;50.878;4.742;2022-10-04T14:32:17;5.28;;;3.05;;
10045;SDS011;5063;50.878;4.742;2022-10-04T14:37:48;6.30;;;3.57;;
10045;SDS011;5063;50.878;4.742;2022-10-04T15:07:46;4.95;;;2.55;;
10045;SDS011;5063;50.878;4.742;2022-10-04T15:10:21;4.93;;;3.28;;
10045;SDS011;5063;50.878;4.742;2022-10-04T15:15:50;5.00;;;3.25;;
10045;SDS011;5063;50.878;4.742;2022-10-04T15:21:20;4.80;;;2.50;;
10045;SDS011;5063;50.878;4.742;2022-10-04T15:38:19;7.40;;;3.05;;
10045;SDS011;5063;50.878;4.742;2022-10-04T15:49:50;4.05;;;3.13;;
10045;SDS011;5063;50.878;4.742;2022-10-04T15:52:47;5.75;;;3.03;;
10045;SDS011;5063;50.878;4.742;2022-10-04T15:55:24;4.40;;;2.90;;
10045;SDS011;5063;50.878;4.742;2022-10-04T16:00:24;6.20;;;3.25;;
10045;SDS011;5063;50.878;4.742;2022-10-04T16:13:40;3.53;;;3.00;;
10045;SDS011;5063;50.878;4.742;2022-10-04T16:31:58;5.27;;;3.10;;
10045;SDS011;5063;50.878;4.742;2022-10-04T16:34:49;3.93;;;3.53;;
10045;SDS011;5063;50.878;4.742;2022-10-04T16:37:37;2.90;;;2.60;;
10045;SDS011;5063;50.878;4.742;2022-10-04T16:40:24;3.47;;;3.17;;
10045;SDS011;5063;50.878;4.742;2022-10-04T17:07:49;4.40;;;3.33;;
10045;SDS011;5063;50.878;4.742;2022-10-04T17:10:34;5.17;;;3.30;;
10045;SDS011;5063;50.878;4.742;2022-10-04T17:16:04;6.73;;;3.70;;
10045;SDS011;5063;50.878;4.742;2022-10-04T17:24:30;3.93;;;3.53;;
10045;SDS011;5063;50.878;4.742;2022-10-04T17:30:19;5.57;;;3.53;;
10045;SDS011;5063;50.878;4.742;2022-10-04T17:44:33;4.87;;;3.37;;
10045;SDS011;5063;50.878;4.742;2022-10-04T17:50:18;7.63;;;4.07;;
10045;SDS011;5063;50.878;4.742;2022-10-04T17:53:17;6.70;;;4.40;;
10045;SDS011;5063;50.878;4.742;2022-10-04T17:56:06;5.70;;;3.67;;
10045;SDS011;5063;50.878;4.742;2022-10-04T17:58:43;4.47;;;3.60;;
10045;SDS011;5063;50.878;4.742;2022-10-04T18:01:17;5.07;;;3.47;;
10045;SDS011;5063;50.878;4.742;2022-10-04T18:03:55;5.83;;;4.17;;
10045;SDS011;5063;50.878;4.742;2022-10-04T18:06:55;6.30;;;4.20;;
10045;SDS011;5063;50.878;4.742;2022-10-04T18:11:55;4.50;;;3.77;;
10045;SDS011;5063;50.878;4.742;2022-10-04T18:17:00;4.83;;;4.10;;
10045;SDS011;5063;50.878;4.742;2022-10-04T18:22:19;5.67;;;4.37;;
10045;SDS011;5063;50.878;4.742;2022-10-04T18:33:19;5.93;;;4.50;;
10045;SDS011;5063;50.878;4.742;2022-10-04T18:36:43;6.90;;;4.87;;
10045;SDS011;5063;50.878;4.742;2022-10-04T18:38:45;6.73;;;4.63;;
10045;SDS011;5063;50.878;4.742;2022-10-04T18:41:24;12.10;;;5.20;;
10045;SDS011;5063;50.878;4.742;2022-10-04T18:44:14;6.10;;;4.40;;
10045;SDS011;5063;50.878;4.742;2022-10-04T18:46:41;5.30;;;4.40;;
10045;SDS011;5063;50.878;4.742;2022-10-04T18:49:30;4.90;;;4.40;;
10045;SDS011;5063;50.878;4.742;2022-10-04T18:57:36;5.70;;;5.10;;
10045;SDS011;5063;50.878;4.742;2022-10-04T19:00:24;5.90;;;4.50;;
10045;SDS011;5063;50.878;4.742;2022-10-04T19:11:37;7.77;;;4.80;;
10045;SDS011;5063;50.878;4.742;2022-10-04T19:16:39;9.33;;;5.23;;
10045;SDS011;5063;50.878;4.742;2022-10-04T19:21:58;6.80;;;5.20;;
10045;SDS011;5063;50.878;4.742;2022-10-04T19:24:37;5.47;;;4.77;;
10045;SDS011;5063;50.878;4.742;2022-10-04T19:27:05;9.07;;;5.97;;
10045;SDS011;5063;50.878;4.742;2022-10-04T19:32:25;6.87;;;5.27;;
10045;SDS011;5063;50.878;4.742;2022-10-04T19:35:24;8.20;;;5.00;;
10045;SDS011;5063;50.878;4.742;2022-10-04T19:38:09;9.80;;;5.40;;
10045;SDS011;5063;50.878;4.742;2022-10-04T19:43:43;6.63;;;4.83;;
10045;SDS011;5063;50.878;4.742;2022-10-04T19:48:46;6.37;;;5.43;;
10045;SDS011;5063;50.878;4.742;2022-10-04T19:53:52;12.47;;;6.00;;
10045;SDS011;5063;50.878;4.742;2022-10-04T19:56:24;5.93;;;5.20;;
10045;SDS011;5063;50.878;4.742;2022-10-04T19:59:38;7.50;;;5.93;;
10045;SDS011;5063;50.878;4.742;2022-10-04T20:02:10;9.30;;;5.53;;
10045;SDS011;5063;50.878;4.742;2022-10-04T20:04:37;7.93;;;5.63;;
10045;SDS011;5063;50.878;4.742;2022-10-04T20:07:15;9.33;;;6.37;;
10045;SDS011;5063;50.878;4.742;2022-10-04T20:12:39;5.77;;;5.20;;
10045;SDS011;5063;50.878;4.742;2022-10-04T20:17:41;7.00;;;4.87;;
10045;SDS011;5063;50.878;4.742;2022-10-04T20:20:08;8.07;;;6.00;;
10045;SDS011;5063;50.878;4.742;2022-10-04T20:28:07;10.63;;;5.80;;
10045;SDS011;5063;50.878;4.742;2022-10-04T20:30:49;7.27;;;6.07;;
10045;SDS011;5063;50.878;4.742;2022-10-04T20:46:25;8.03;;;6.13;;
10045;SDS011;5063;50.878;4.742;2022-10-04T20:48:55;9.17;;;5.70;;
10045;SDS011;5063;50.878;4.742;2022-10-04T20:51:29;10.67;;;5.40;;
10045;SDS011;5063;50.878;4.742;2022-10-04T20:53:57;6.33;;;5.07;;
10045;SDS011;5063;50.878;4.742;2022-10-04T20:56:31;8.57;;;5.83;;
10045;SDS011;5063;50.878;4.742;2022-10-04T20:58:58;7.53;;;6.00;;
10045;SDS011;5063;50.878;4.742;2022-10-04T21:01:29;8.93;;;6.13;;
10045;SDS011;5063;50.878;4.742;2022-10-04T21:04:12;8.80;;;6.13;;
10045;SDS011;5063;50.878;4.742;2022-10-04T21:07:01;7.93;;;5.63;;
10045;SDS011;5063;50.878;4.742;2022-10-04T21:09:31;10.43;;;6.60;;
10045;SDS011;5063;50.878;4.742;2022-10-04T21:11:59;8.40;;;5.90;;
10045;SDS011;5063;50.878;4.742;2022-10-04T21:14:35;8.33;;;6.30;;
10045;SDS011;5063;50.878;4.742;2022-10-04T21:19:52;7.90;;;6.40;;
10045;SDS011;5063;50.878;4.742;2022-10-04T21:25:05;9.43;;;6.47;;
10045;SDS011;5063;50.878;4.742;2022-10-04T21:27:51;11.67;;;7.10;;
10045;SDS011;5063;50.878;4.742;2022-10-04T21:30:17;11.90;;;7.90;;
10045;SDS011;5063;50.878;4.742;2022-10-04T21:32:43;9.67;;;6.17;;
10045;SDS011;5063;50.878;4.742;2022-10-04T21:35:11;11.17;;;6.50;;
10045;SDS011;5063;50.878;4.742;2022-10-04T21:37:37;7.70;;;6.90;;
10045;SDS011;5063;50.878;4.742;2022-10-04T21:40:03;10.57;;;7.00;;
10045;SDS011;5063;50.878;4.742;2022-10-04T21:42:30;11.10;;;7.13;;
10045;SDS011;5063;50.878;4.742;2022-10-04T21:44:56;9.43;;;6.67;;
10045;SDS011;5063;50.878;4.742;2022-10-04T21:47:22;9.00;;;6.57;;
10045;SDS011;5063;50.878;4.742;2022-10-04T21:49:48;10.00;;;6.40;;
10045;SDS011;5063;50.878;4.742;2022-10-04T21:52:16;9.27;;;7.00;;
10045;SDS011;5063;50.878;4.742;2022-10-04T21:54:42;10.27;;;7.40;;
10045;SDS011;5063;50.878;4.742;2022-10-04T21:57:09;9.27;;;6.90;;
10045;SDS011;5063;50.878;4.742;2022-10-04T21:59:34;13.60;;;6.53;;
10045;SDS011;5063;50.878;4.742;2022-10-04T22:02:00;9.30;;;7.63;;
10045;SDS011;5063;50.878;4.742;2022-10-04T22:04:26;8.23;;;6.73;;
10045;SDS011;5063;50.878;4.742;2022-10-04T22:06:52;7.30;;;6.33;;
10045;SDS011;5063;50.878;4.742;2022-10-04T22:09:17;7.73;;;6.53;;
10045;SDS011;5063;50.878;4.742;2022-10-04T22:11:43;7.77;;;6.70;;
10045;SDS011;5063;50.878;4.742;2022-10-04T22:14:09;7.60;;;6.80;;
10045;SDS011;5063;50.878;4.742;2022-10-04T22:16:35;7.53;;;6.70;;
10045;SDS011;5063;50.878;4.742;2022-10-04T22:19:00;8.83;;;7.03;;
10045;SDS011;5063;50.878;4.742;2022-10-04T22:21:26;8.10;;;7.03;;
10045;SDS011;5063;50.878;4.742;2022-10-04T22:23:52;8.43;;;7.17;;
10045;SDS011;5063;50.878;4.742;2022-10-04T22:26:19;8.83;;;6.87;;
10045;SDS011;5063;50.878;4.742;2022-10-04T22:28:46;10.33;;;7.00;;
10045;SDS011;5063;50.878;4.742;2022-10-04T22:31:21;8.03;;;6.73;;
10045;SDS011;5063;50.878;4.742;2022-10-04T22:33:51;11.40;;;7.07;;
10045;SDS011;5063;50.878;4.742;2022-10-04T22:38:59;8.17;;;6.20;;
10045;SDS011;5063;50.878;4.742;2022-10-04T22:41:33;9.10;;;6.97;;
10045;SDS011;5063;50.878;4.742;2022-10-04T22:44:17;10.63;;;7.37;;
10045;SDS011;5063;50.878;4.742;2022-10-04T22:46:52;6.67;;;5.93;;
10045;SDS011;5063;50.878;4.742;2022-10-04T22:49:23;11.33;;;7.40;;
10045;SDS011;5063;50.878;4.742;2022-10-04T22:51:52;10.30;;;7.07;;
10045;SDS011;5063;50.878;4.742;2022-10-04T22:54:20;7.43;;;6.27;;
10045;SDS011;5063;50.878;4.742;2022-10-04T22:56:49;9.70;;;6.80;;
10045;SDS011;5063;50.878;4.742;2022-10-04T22:59:16;9.57;;;6.60;;
10045;SDS011;5063;50.878;4.742;2022-10-04T23:01:43;8.50;;;6.03;;
10045;SDS011;5063;50.878;4.742;2022-10-04T23:04:20;9.50;;;6.27;;
10045;SDS011;5063;50.878;4.742;2022-10-04T23:06:47;8.00;;;6.03;;
10045;SDS011;5063;50.878;4.742;2022-10-04T23:09:14;7.80;;;6.23;;
10045;SDS011;5063;50.878;4.742;2022-10-04T23:11:40;7.07;;;6.23;;
10045;SDS011;5063;50.878;4.742;2022-10-04T23:14:06;8.13;;;6.13;;
10045;SDS011;5063;50.878;4.742;2022-10-04T23:16:32;7.93;;;6.63;;
10045;SDS011;5063;50.878;4.742;2022-10-04T23:18:59;7.07;;;5.83;;
10045;SDS011;5063;50.878;4.742;2022-10-04T23:21:42;11.20;;;6.33;;
10045;SDS011;5063;50.878;4.742;2022-10-04T23:24:16;9.43;;;5.50;;
10045;SDS011;5063;50.878;4.742;2022-10-04T23:26:45;6.87;;;5.43;;
10045;SDS011;5063;50.878;4.742;2022-10-04T23:29:22;8.43;;;5.60;;
10045;SDS011;5063;50.878;4.742;2022-10-04T23:31:50;6.50;;;5.50;;
10045;SDS011;5063;50.878;4.742;2022-10-04T23:34:27;12.67;;;5.97;;
10045;SDS011;5063;50.878;4.742;2022-10-04T23:36:54;12.13;;;6.00;;
10045;SDS011;5063;50.878;4.742;2022-10-04T23:39:26;6.57;;;5.37;;
10045;SDS011;5063;50.878;4.742;2022-10-04T23:41:54;6.90;;;5.90;;
10045;SDS011;5063;50.878;4.742;2022-10-04T23:44:27;6.30;;;5.33;;
10045;SDS011;5063;50.878;4.742;2022-10-04T23:46:59;9.57;;;5.40;;
10045;SDS011;5063;50.878;4.742;2022-10-04T23:49:25;13.00;;;5.90;;
10045;SDS011;5063;50.878;4.742;2022-10-04T23:51:53;10.27;;;5.87;;
10045;SDS011;5063;50.878;4.742;2022-10-04T23:54:23;6.50;;;5.60;;
10045;SDS011;5063;50.878;4.742;2022-10-04T23:56:49;7.73;;;5.53;;
10045;SDS011;5063;50.878;4.742;2022-10-04T23:59:17;8.50;;;5.90;;
